Time;durP1;ratioP1;P1;durP2;ratioP2;P2;SDS_P1;SDS_P2;PMS_P1;PMS_P2;Temp;Humidity;BMP_temperature;BMP_pressure;BME280_temperature;BME280_humidity;BME280_pressure;Samples;Min_cycle;Max_cycle;Signal;HPM_P1;HPM_P2
2023/03/09 00:01:53;;;;;;;12.73;3.10;;;9.50;99.90;;;9.57;100.00;97807.38;4981295;28;20295;-78
2023/03/09 00:04:21;;;;;;;12.52;2.95;;;9.50;99.90;;;9.54;100.00;97809.22;5003521;28;20232;-78
2023/03/09 00:06:48;;;;;;;11.23;2.83;;;9.50;99.90;;;9.60;100.00;97833.66;4984643;28;20228;-78
2023/03/09 00:09:17;;;;;;;7.45;2.10;;;9.60;99.90;;;9.70;100.00;97870.34;4990800;28;20231;-79
2023/03/09 00:11:47;;;;;;;11.07;3.25;;;9.70;99.90;;;9.70;100.00;97910.78;4985394;28;20240;-79
2023/03/09 00:14:17;;;;;;;16.13;4.13;;;9.60;99.90;;;9.66;100.00;97934.66;4987599;28;20242;-78
2023/03/09 00:16:44;;;;;;;8.35;2.08;;;9.60;99.90;;;9.74;100.00;97949.38;4988338;28;20236;-78
2023/03/09 00:19:11;;;;;;;8.95;2.55;;;9.60;99.90;;;9.63;100.00;97956.72;4985395;28;20232;-78
2023/03/09 00:21:40;;;;;;;10.88;3.28;;;9.60;99.90;;;9.52;100.00;97977.25;4989828;28;20255;-78
2023/03/09 00:24:14;;;;;;;7.47;2.05;;;9.50;99.90;;;9.70;100.00;97997.88;4985179;28;20232;-79
2023/03/09 00:26:47;;;;;;;7.75;2.30;;;9.60;99.90;;;9.72;100.00;98001.31;4986963;28;20236;-78
2023/03/09 00:29:14;;;;;;;9.23;2.55;;;9.70;99.90;;;9.86;100.00;98016.78;4984469;28;20256;-79
2023/03/09 00:31:42;;;;;;;13.10;3.53;;;9.80;99.90;;;9.79;100.00;98016.09;4982409;28;20319;-79
2023/03/09 00:34:11;;;;;;;8.95;2.47;;;9.80;99.90;;;9.77;100.00;98022.31;4988630;28;20236;-79
2023/03/09 00:36:39;;;;;;;14.48;4.13;;;9.70;99.90;;;9.80;100.00;98038.06;4981902;28;20260;-79
2023/03/09 00:39:07;;;;;;;10.20;2.85;;;9.70;99.90;;;9.88;100.00;98060.72;4995022;28;20232;-79
2023/03/09 00:41:34;;;;;;;8.82;2.63;;;9.80;99.90;;;9.84;100.00;98072.25;4982471;28;20257;-79
2023/03/09 00:44:03;;;;;;;7.88;2.40;;;9.80;99.90;;;9.82;100.00;98083.75;4988845;28;20743;-78
2023/03/09 00:46:31;;;;;;;9.30;2.63;;;9.80;99.90;;;9.96;100.00;98094.84;4982621;28;20229;-79
2023/03/09 00:48:59;;;;;;;8.35;2.47;;;9.80;99.90;;;9.90;100.00;98101.16;4989058;28;20244;-75
2023/03/09 00:51:26;;;;;;;8.80;2.58;;;9.80;99.90;;;9.79;100.00;98095.28;4988295;28;20331;-78
2023/03/09 00:53:55;;;;;;;8.82;2.55;;;9.70;99.90;;;9.85;100.00;98102.16;4989387;28;20680;-78
2023/03/09 00:56:26;;;;;;;11.27;3.15;;;9.80;99.90;;;9.82;100.00;98103.09;4986851;28;20680;-78
2023/03/09 00:58:54;;;;;;;7.93;2.33;;;9.80;99.90;;;9.82;100.00;98095.19;4983604;28;20236;-78
2023/03/09 01:01:21;;;;;;;6.47;2.00;;;9.80;99.90;;;10.16;100.00;98136.56;4991581;28;20228;-79
2023/03/09 01:03:49;;;;;;;10.40;2.83;;;9.70;99.90;;;10.15;100.00;98138.34;4969779;28;20260;-78
2023/03/09 01:06:17;;;;;;;7.47;2.17;;;10.10;99.90;;;9.97;100.00;98120.34;4987566;28;20256;-79
2023/03/09 01:08:47;;;;;;;11.50;3.25;;;10.00;99.90;;;9.88;100.00;98117.94;4990054;28;20228;-78
2023/03/09 01:11:16;;;;;;;10.77;3.10;;;9.80;99.90;;;9.80;100.00;98115.47;4987624;28;20234;-78
2023/03/09 01:13:44;;;;;;;7.55;2.22;;;9.80;99.90;;;9.73;100.00;98113.03;4991728;28;20298;-79
2023/03/09 01:16:12;;;;;;;5.85;1.90;;;9.70;99.90;;;9.89;100.00;98114.38;4989669;28;20242;-77
2023/03/09 01:18:40;;;;;;;7.30;2.25;;;9.80;99.90;;;9.90;100.00;98111.69;4990129;28;20243;-78
2023/03/09 01:21:08;;;;;;;6.90;2.03;;;9.80;99.90;;;9.87;100.00;98100.34;4989468;28;20294;-78
2023/03/09 01:23:38;;;;;;;10.90;3.22;;;9.80;99.90;;;10.13;100.00;98103.19;5006548;28;20275;-80
2023/03/09 01:26:07;;;;;;;8.90;2.75;;;10.00;99.90;;;9.99;100.00;98101.81;4987843;28;20267;-78
2023/03/09 01:28:35;;;;;;;6.85;2.10;;;9.90;99.90;;;9.78;100.00;98097.94;4989903;28;20303;-78
2023/03/09 01:31:11;;;;;;;8.45;2.72;;;9.80;99.90;;;9.81;100.00;98104.00;4983656;28;20660;-77
2023/03/09 01:33:38;;;;;;;6.88;2.13;;;9.70;99.90;;;9.65;100.00;98112.34;4992297;28;20249;-78
2023/03/09 01:36:08;;;;;;;6.93;2.15;;;9.60;99.90;;;9.54;100.00;98097.66;4983042;28;20248;-77
2023/03/09 01:38:36;;;;;;;7.97;2.47;;;9.50;99.90;;;9.49;100.00;98096.91;4987237;28;20243;-77
2023/03/09 01:41:03;;;;;;;8.15;2.42;;;9.40;99.90;;;9.53;100.00;98110.88;4989920;28;20240;-77
2023/03/09 01:43:34;;;;;;;12.10;3.38;;;9.40;99.90;;;9.55;100.00;98106.44;4989707;28;20228;-78
2023/03/09 01:46:20;;;;;;;10.30;3.00;;;9.50;99.90;;;9.46;100.00;98096.97;4990962;28;20262;-77
2023/03/09 01:48:51;;;;;;;13.68;3.83;;;9.50;99.90;;;9.56;100.00;98102.88;4987299;28;20251;-79
2023/03/09 01:51:19;;;;;;;8.13;2.22;;;9.50;99.90;;;9.62;100.00;98100.09;4985733;28;20251;-78
2023/03/09 01:53:48;;;;;;;9.55;2.60;;;9.50;99.90;;;9.68;100.00;98088.53;4980024;28;20228;-79
2023/03/09 01:56:18;;;;;;;10.98;3.03;;;9.60;99.90;;;9.67;100.00;98099.97;4990756;28;20232;-78
2023/03/09 01:58:47;;;;;;;7.10;2.10;;;9.60;99.90;;;9.97;100.00;98106.25;4987639;28;20268;-80
2023/03/09 02:01:15;;;;;;;11.07;2.95;;;9.80;99.90;;;10.00;100.00;98114.97;5003580;28;20256;-79
2023/03/09 02:03:47;;;;;;;13.80;3.58;;;10.00;99.90;;;10.08;100.00;98126.22;4988187;28;20310;-79
2023/03/09 02:06:18;;;;;;;9.77;2.53;;;10.00;99.90;;;10.05;100.00;98139.50;4986302;28;20243;-78
2023/03/09 02:09:04;;;;;;;10.88;3.13;;;10.00;99.90;;;10.09;100.00;98138.50;4984950;28;20233;-78
2023/03/09 02:11:32;;;;;;;9.23;2.63;;;10.10;99.90;;;10.07;100.00;98158.78;4983406;28;20225;-79
2023/03/09 02:14:01;;;;;;;21.58;6.07;;;10.00;99.90;;;10.14;100.00;98159.50;4970673;28;20332;-79
2023/03/09 02:16:28;;;;;;;10.45;2.83;;;10.10;99.90;;;10.02;100.00;98167.75;4979338;28;20268;-79
2023/03/09 02:18:55;;;;;;;11.02;3.17;;;10.00;99.90;;;10.01;100.00;98180.06;4988190;28;20227;-78
2023/03/09 02:21:48;;;;;;;11.73;3.25;;;10.00;99.90;;;10.08;100.00;98178.16;4988262;28;20263;-79
2023/03/09 02:24:21;;;;;;;11.75;3.35;;;10.00;99.90;;;9.96;100.00;98179.31;4984323;28;20239;-80
2023/03/09 02:27:00;;;;;;;11.15;3.47;;;9.90;99.90;;;9.89;100.00;98183.00;4986187;28;20235;-79
2023/03/09 02:29:29;;;;;;;12.40;3.35;;;9.80;99.90;;;10.01;100.00;98187.13;4984393;28;20228;-78
2023/03/09 02:31:56;;;;;;;8.60;2.47;;;10.00;99.90;;;9.91;100.00;98197.91;4986366;28;20240;-78
2023/03/09 02:34:23;;;;;;;8.93;2.53;;;9.90;99.90;;;9.80;100.00;98204.34;4989899;28;20273;-78
2023/03/09 02:36:50;;;;;;;8.38;2.40;;;9.80;99.90;;;9.82;100.00;98203.41;4984435;28;20268;-79
2023/03/09 02:39:49;;;;;;;11.68;3.25;;;9.80;99.90;;;9.74;100.00;98193.94;4980788;28;20237;-79
2023/03/09 02:42:18;;;;;;;12.90;3.58;;;9.80;99.90;;;9.84;100.00;98204.25;4983054;28;20311;-79
2023/03/09 02:44:46;;;;;;;15.30;3.72;;;9.60;99.90;;;9.75;100.00;98193.91;4988123;28;20269;-77
2023/03/09 02:47:20;;;;;;;8.75;2.50;;;9.70;99.90;;;9.72;100.00;98214.22;4986565;28;20259;-78
2023/03/09 02:49:47;;;;;;;10.43;3.08;;;9.70;99.90;;;9.79;100.00;98219.31;4986067;28;20235;-79
2023/03/09 02:52:15;;;;;;;6.38;1.80;;;9.70;99.90;;;9.67;100.00;98222.25;4991015;28;20256;-79
2023/03/09 02:54:42;;;;;;;10.38;2.80;;;9.60;99.90;;;9.61;100.00;98223.25;4985543;28;20300;-80
2023/03/09 02:57:09;;;;;;;12.45;3.40;;;9.60;99.90;;;9.64;100.00;98219.66;4988559;28;20236;-81
2023/03/09 02:59:36;;;;;;;8.20;2.35;;;9.60;99.90;;;9.63;100.00;98213.53;4985438;28;20237;-77
2023/03/09 03:02:04;;;;;;;10.18;3.10;;;9.60;99.90;;;9.67;100.00;98232.78;4986616;28;20228;-79
2023/03/09 03:04:31;;;;;;;7.80;2.45;;;9.60;99.90;;;9.69;100.00;98233.63;4985528;28;20271;-78
2023/03/09 03:06:58;;;;;;;6.25;1.98;;;9.60;99.90;;;9.71;100.00;98228.31;4987955;28;20239;-79
2023/03/09 03:09:25;;;;;;;8.40;2.75;;;9.70;99.90;;;9.66;100.00;98241.63;4987212;28;20236;-78
2023/03/09 03:11:52;;;;;;;9.35;2.67;;;9.60;99.90;;;9.72;100.00;98259.94;4986477;28;20689;-77
2023/03/09 03:14:19;;;;;;;6.68;2.15;;;9.60;99.90;;;9.76;100.00;98260.75;4986704;28;20240;-77
2023/03/09 03:16:47;;;;;;;10.82;3.35;;;9.70;99.90;;;9.75;100.00;98267.78;4985117;28;20306;-77
2023/03/09 03:19:14;;;;;;;7.82;2.45;;;9.70;99.90;;;9.71;100.00;98265.25;4985714;28;20232;-78
2023/03/09 03:21:41;;;;;;;9.35;2.83;;;9.70;99.90;;;9.57;100.00;98271.72;4979599;28;20244;-78
2023/03/09 03:24:08;;;;;;;9.38;2.63;;;9.60;99.90;;;9.73;100.00;98258.19;4985779;28;20233;-76
2023/03/09 03:26:35;;;;;;;15.57;4.45;;;9.70;99.90;;;9.65;100.00;98263.63;4983891;28;20330;-78
2023/03/09 03:29:02;;;;;;;9.05;2.88;;;9.60;99.90;;;9.62;100.00;98275.13;4984917;28;20232;-78
2023/03/09 03:31:30;;;;;;;7.22;2.35;;;9.60;99.90;;;9.71;100.00;98274.03;4982839;28;20315;-77
2023/03/09 03:33:57;;;;;;;6.22;2.15;;;9.60;99.90;;;9.67;100.00;98288.22;4981224;28;20310;-77
2023/03/09 03:36:24;;;;;;;9.73;3.08;;;9.60;99.90;;;9.70;100.00;98276.72;4988357;28;20233;-77
2023/03/09 03:38:51;;;;;;;7.10;2.30;;;9.70;99.90;;;9.77;100.00;98292.38;4986309;28;20260;-77
2023/03/09 03:41:19;;;;;;;4.97;1.75;;;9.70;99.90;;;9.62;100.00;98280.41;4988053;28;20323;-77
2023/03/09 03:43:46;;;;;;;9.85;2.97;;;9.60;99.90;;;9.66;100.00;98306.72;4985762;28;20233;-77
2023/03/09 03:46:13;;;;;;;6.82;2.20;;;9.60;99.90;;;9.75;100.00;98303.88;4986981;28;20240;-77
2023/03/09 03:48:42;;;;;;;9.93;3.05;;;9.70;99.90;;;9.67;100.00;98319.88;4981590;28;20239;-77
2023/03/09 03:51:10;;;;;;;5.32;1.73;;;9.60;99.90;;;9.84;100.00;98330.94;5001428;28;20394;-78
2023/03/09 03:53:37;;;;;;;5.78;1.80;;;9.80;99.90;;;9.75;100.00;98325.00;4988695;28;20803;-78
2023/03/09 03:56:04;;;;;;;9.23;2.78;;;9.70;99.90;;;9.68;100.00;98332.16;4984406;28;20248;-77
2023/03/09 03:58:31;;;;;;;8.73;2.50;;;9.70;99.90;;;9.79;100.00;98339.84;4988525;28;20307;-77
2023/03/09 04:00:58;;;;;;;11.88;3.50;;;9.70;99.90;;;9.74;100.00;98342.59;4981277;28;20248;-76
2023/03/09 04:03:25;;;;;;;12.30;3.53;;;9.70;99.90;;;9.82;100.00;98367.06;4983252;28;20228;-79
2023/03/09 04:05:53;;;;;;;10.70;2.92;;;9.70;99.90;;;9.93;100.00;98367.69;4983016;28;20236;-77
2023/03/09 04:08:20;;;;;;;8.85;2.40;;;9.80;99.90;;;9.91;100.00;98366.88;5000496;28;20237;-77
2023/03/09 04:10:47;;;;;;;13.23;3.58;;;9.80;99.90;;;9.89;100.00;98394.19;4986076;28;20236;-77
2023/03/09 04:13:14;;;;;;;12.27;3.33;;;9.80;99.90;;;9.83;100.00;98381.13;4986384;28;20332;-76
2023/03/09 04:15:41;;;;;;;13.40;3.63;;;9.80;99.90;;;9.80;100.00;98386.47;4983920;28;20269;-76
2023/03/09 04:18:09;;;;;;;9.10;2.75;;;9.80;99.90;;;9.77;100.00;98413.81;4983128;28;20229;-78
2023/03/09 04:20:38;;;;;;;8.20;2.40;;;9.70;99.90;;;9.72;100.00;98406.88;5001787;28;20236;-77
2023/03/09 04:23:06;;;;;;;8.85;2.50;;;9.70;99.90;;;9.86;100.00;98423.31;4985895;28;20243;-76
2023/03/09 04:25:33;;;;;;;10.65;3.08;;;9.80;99.90;;;9.77;100.00;98428.75;4988069;28;20232;-77
2023/03/09 04:28:00;;;;;;;9.05;2.72;;;9.70;99.90;;;9.72;100.00;98443.81;4986457;28;20287;-76
2023/03/09 04:30:27;;;;;;;5.45;1.70;;;9.70;99.90;;;9.76;100.00;98449.00;5005521;28;20260;-78
2023/03/09 04:32:54;;;;;;;10.70;3.08;;;9.70;99.90;;;9.81;100.00;98452.44;4988066;28;20235;-78
2023/03/09 04:35:22;;;;;;;6.90;2.15;;;9.80;99.90;;;9.68;100.00;98458.84;4987452;28;20654;-77
2023/03/09 04:37:51;;;;;;;6.88;2.03;;;9.70;99.90;;;9.87;100.00;98464.63;4982666;28;20323;-76
2023/03/09 04:40:18;;;;;;;6.18;1.90;;;9.70;99.90;;;9.91;100.00;98456.63;4988687;28;20637;-77
2023/03/09 04:42:46;;;;;;;9.57;2.60;;;9.80;99.90;;;9.88;100.00;98453.19;4982787;28;20318;-78
2023/03/09 04:45:13;;;;;;;9.00;2.50;;;9.80;99.90;;;9.91;100.00;98453.13;4987449;28;20236;-77
2023/03/09 04:47:40;;;;;;;9.02;2.55;;;9.80;99.90;;;9.84;100.00;98457.66;4986527;28;20225;-78
2023/03/09 04:50:09;;;;;;;9.52;2.72;;;9.80;99.90;;;9.84;100.00;98462.06;4984214;28;20259;-77
2023/03/09 04:52:36;;;;;;;10.88;2.95;;;9.80;99.90;;;9.89;100.00;98447.00;4984751;28;20228;-78
2023/03/09 04:55:03;;;;;;;10.30;3.35;;;9.90;99.90;;;9.75;100.00;98454.31;4978341;28;20236;-76
2023/03/09 04:57:30;;;;;;;7.07;2.00;;;9.80;99.90;;;9.71;100.00;98453.50;4981354;28;20229;-78
2023/03/09 04:59:57;;;;;;;9.77;2.75;;;9.70;99.90;;;9.79;100.00;98453.34;4985813;28;20232;-77
2023/03/09 05:02:28;;;;;;;6.93;2.00;;;9.70;99.90;;;9.69;100.00;98459.72;4984204;28;20248;-77
2023/03/09 05:04:55;;;;;;;13.48;3.97;;;9.60;99.90;;;9.56;100.00;98467.88;4987525;28;20228;-78
2023/03/09 05:07:22;;;;;;;9.77;2.70;;;9.60;99.90;;;9.70;100.00;98477.28;4980620;28;20229;-76
2023/03/09 05:09:50;;;;;;;9.13;2.58;;;9.60;99.90;;;9.59;100.00;98473.09;4988056;28;20260;-77
2023/03/09 05:12:17;;;;;;;9.85;2.67;;;9.60;99.90;;;9.61;100.00;98479.19;4984564;28;20244;-78
2023/03/09 05:14:44;;;;;;;10.13;2.60;;;9.50;99.90;;;9.45;100.00;98485.66;4985875;28;20287;-77
2023/03/09 05:17:11;;;;;;;7.72;2.17;;;9.40;99.90;;;9.49;100.00;98500.53;4985432;28;20279;-78
2023/03/09 05:19:38;;;;;;;7.72;2.20;;;9.40;99.90;;;9.57;100.00;98492.47;4988418;28;20248;-77
2023/03/09 05:22:06;;;;;;;14.10;3.60;;;9.50;99.90;;;9.64;100.00;98496.75;4985349;28;20252;-78
2023/03/09 05:24:33;;;;;;;11.65;3.15;;;9.60;99.90;;;9.67;100.00;98485.25;4979819;28;20306;-78
2023/03/09 05:27:00;;;;;;;13.82;3.67;;;9.60;99.90;;;9.47;100.00;98475.94;4985013;28;20244;-77
2023/03/09 05:29:27;;;;;;;8.82;2.38;;;9.50;99.90;;;9.47;100.00;98480.34;4987401;28;20225;-78
2023/03/09 05:31:55;;;;;;;9.90;2.67;;;9.40;99.90;;;9.60;100.00;98493.28;4988707;28;20240;-78
2023/03/09 05:34:22;;;;;;;8.10;2.20;;;9.50;99.90;;;9.64;100.00;98496.75;4985295;28;20259;-78
2023/03/09 05:36:49;;;;;;;7.90;2.40;;;9.60;99.90;;;9.52;100.00;98492.56;4989479;28;20275;-77
2023/03/09 05:39:18;;;;;;;8.90;2.42;;;9.50;99.90;;;9.46;100.00;98497.06;4984364;28;20767;-78
2023/03/09 05:41:45;;;;;;;7.95;2.20;;;9.50;99.90;;;9.45;100.00;98505.88;4989617;28;20248;-78
2023/03/09 05:44:16;;;;;;;11.20;3.05;;;9.40;99.90;;;9.79;100.00;98514.06;4984853;28;20228;-77
2023/03/09 05:46:43;;;;;;;6.72;1.75;;;9.60;99.90;;;9.66;100.00;98505.50;4988973;28;20692;-77
2023/03/09 05:49:11;;;;;;;13.93;3.60;;;9.60;99.90;;;9.61;100.00;98500.31;5005298;28;20278;-77
2023/03/09 05:51:38;;;;;;;9.52;2.35;;;9.60;99.90;;;9.58;100.00;98510.91;5005037;28;20252;-79
2023/03/09 05:54:06;;;;;;;12.45;3.25;;;9.60;99.90;;;9.55;100.00;98518.88;4990826;28;20232;-76
2023/03/09 05:56:33;;;;;;;9.98;2.60;;;9.50;99.90;;;9.60;100.00;98516.16;4988564;28;20275;-78
2023/03/09 05:59:00;;;;;;;12.40;3.25;;;9.50;99.90;;;9.69;100.00;98537.13;4988197;28;20224;-78
2023/03/09 06:01:29;;;;;;;14.25;3.65;;;9.60;99.90;;;9.63;100.00;98524.91;4990577;28;20231;-76
2023/03/09 06:03:56;;;;;;;10.57;2.80;;;9.60;99.90;;;9.81;100.00;98538.66;4992932;28;20233;-78
2023/03/09 06:06:23;;;;;;;10.18;2.97;;;9.70;99.90;;;9.70;100.00;98540.63;5001323;23;20228;-78
2023/03/09 06:08:51;;;;;;;6.82;2.10;;;9.70;99.90;;;9.69;100.00;98545.03;4990888;28;20235;-77
2023/03/09 06:11:18;;;;;;;7.85;2.38;;;9.60;99.90;;;9.66;100.00;98560.94;4993300;28;20240;-77
2023/03/09 06:13:45;;;;;;;9.70;2.85;;;9.60;99.90;;;9.66;100.00;98557.41;4989833;28;20236;-76
2023/03/09 06:16:16;;;;;;;5.35;1.60;;;9.60;99.90;;;9.55;100.00;98544.41;4971977;28;20281;-75
2023/03/09 06:18:44;;;;;;;6.82;2.08;;;9.60;99.90;;;9.62;100.00;98549.56;4972026;28;20296;-76
2023/03/09 06:21:12;;;;;;;4.43;1.33;;;9.60;99.90;;;9.49;100.00;98555.94;4968412;28;20241;-73
2023/03/09 06:23:39;;;;;;;5.30;1.70;;;9.50;99.90;;;9.60;100.00;98566.31;4964509;28;20238;-73
2023/03/09 06:26:10;;;;;;;9.13;2.63;;;9.50;99.90;;;9.54;100.00;98574.31;4966897;28;20237;-74
2023/03/09 06:28:38;;;;;;;6.90;2.05;;;9.50;99.90;;;9.50;100.00;98580.56;4971263;28;20233;-73
2023/03/09 06:31:13;;;;;;;8.32;2.42;;;9.50;99.90;;;9.57;100.00;98574.28;4967135;28;20233;-73
2023/03/09 06:33:42;;;;;;;7.30;2.15;;;9.50;99.90;;;9.56;100.00;98575.16;4971253;28;20311;-74
2023/03/09 06:36:15;;;;;;;5.65;1.70;;;9.50;99.90;;;9.58;100.00;98597.13;4969593;28;20249;-74
2023/03/09 06:38:42;;;;;;;9.85;2.78;;;9.50;99.90;;;9.75;100.00;98591.56;4965920;28;20260;-73
2023/03/09 06:41:12;;;;;;;5.78;1.75;;;9.40;99.90;;;9.65;100.00;98603.19;4968626;28;20705;-73
2023/03/09 06:43:40;;;;;;;7.05;2.10;;;9.60;99.90;;;9.65;100.00;98603.19;4970676;28;20237;-73
2023/03/09 06:46:09;;;;;;;5.80;1.88;;;9.60;99.90;;;9.57;100.00;98600.66;4967780;28;20237;-74
2023/03/09 06:48:37;;;;;;;6.07;1.98;;;9.50;99.90;;;9.74;100.00;98610.94;4970506;28;20244;-74
2023/03/09 06:51:04;;;;;;;6.40;1.98;;;9.70;99.90;;;9.68;100.00;98621.59;4982397;28;20296;-73
2023/03/09 06:53:32;;;;;;;6.38;1.92;;;9.60;99.90;;;9.69;100.00;98628.63;4959227;28;20242;-72
2023/03/09 06:56:00;;;;;;;5.03;1.60;;;9.60;99.90;;;9.75;100.00;98628.53;4966284;28;20249;-73
2023/03/09 06:58:28;;;;;;;4.70;1.48;;;9.70;99.90;;;9.70;100.00;98633.00;4957324;28;20292;-73
2023/03/09 07:00:55;;;;;;;6.68;1.95;;;9.70;99.90;;;9.59;100.00;98630.53;4970166;28;20252;-74
2023/03/09 07:03:23;;;;;;;4.82;1.48;;;9.60;99.90;;;9.55;100.00;98635.00;4969408;28;20237;-74
2023/03/09 07:05:50;;;;;;;4.60;1.38;;;9.50;99.90;;;9.67;100.00;98638.31;4971736;28;20256;-73
2023/03/09 07:08:17;;;;;;;9.07;2.33;;;9.60;99.90;;;9.60;100.00;98648.97;4968798;28;20225;-73
2023/03/09 07:10:45;;;;;;;8.02;2.22;;;9.60;99.90;;;9.74;100.00;98656.69;4968231;28;20233;-75
2023/03/09 07:13:15;;;;;;;6.50;1.83;;;9.70;99.90;;;9.82;100.00;98656.56;4970932;28;20280;-75
2023/03/09 07:15:43;;;;;;;5.93;1.70;;;9.70;99.90;;;9.75;100.00;98653.16;4967140;28;20241;-75
2023/03/09 07:18:10;;;;;;;7.43;2.05;;;9.70;99.90;;;9.85;100.00;98665.31;4970325;28;20233;-74
2023/03/09 07:20:39;;;;;;;8.32;2.22;;;9.80;99.90;;;9.79;100.00;98661.88;4960233;28;20269;-75
2023/03/09 07:23:07;;;;;;;5.65;1.65;;;9.80;99.90;;;9.87;100.00;98662.63;4965594;28;20237;-75
2023/03/09 07:25:35;;;;;;;11.77;3.00;;;9.80;99.90;;;9.94;100.00;98666.91;4965309;28;20678;-75
2023/03/09 07:28:05;;;;;;;8.27;2.30;;;9.90;99.90;;;9.81;100.00;98668.88;4967949;28;20299;-75
2023/03/09 07:30:37;;;;;;;6.45;1.73;;;9.80;99.90;;;9.86;100.00;98674.09;4962854;28;20233;-76
2023/03/09 07:33:05;;;;;;;7.72;2.08;;;9.80;99.90;;;9.85;100.00;98681.13;4966531;28;20237;-75
2023/03/09 07:35:32;;;;;;;9.93;2.63;;;9.80;99.90;;;9.73;100.00;98693.66;4967659;28;20242;-76
2023/03/09 07:37:59;;;;;;;12.82;3.03;;;9.70;99.90;;;9.74;100.00;98706.84;4965930;28;20265;-74
2023/03/09 07:40:26;;;;;;;9.23;2.42;;;9.70;99.90;;;9.74;100.00;98704.19;4963380;28;20238;-76
2023/03/09 07:42:53;;;;;;;13.15;3.40;;;9.70;99.90;;;9.87;100.00;98723.34;4971064;28;20241;-75
2023/03/09 07:45:22;;;;;;;8.27;2.15;;;9.80;99.90;;;9.76;100.00;98731.44;4955006;28;20344;-74
2023/03/09 07:47:50;;;;;;;9.55;2.17;;;9.70;99.90;;;9.65;100.00;98737.78;4970176;28;20340;-74
2023/03/09 07:50:18;;;;;;;7.78;2.13;;;9.60;99.90;;;9.60;100.00;98744.00;4968969;28;20256;-75
2023/03/09 07:52:45;;;;;;;7.93;2.35;;;9.60;99.90;;;9.71;100.00;98741.19;4970591;28;20233;-75
2023/03/09 07:55:13;;;;;;;11.02;2.75;;;9.60;99.90;;;9.84;100.00;98742.75;4966972;28;20331;-75
2023/03/09 07:57:41;;;;;;;6.32;1.70;;;9.80;99.90;;;9.84;100.00;98726.91;4971591;28;20233;-75
2023/03/09 08:00:13;;;;;;;12.35;2.97;;;9.80;99.90;;;9.88;100.00;98739.16;4953273;28;20241;-75
2023/03/09 08:02:41;;;;;;;11.13;2.47;;;9.80;99.90;;;9.84;100.00;98734.84;4959337;28;20236;-75
2023/03/09 08:05:10;;;;;;;8.98;2.35;;;9.80;99.90;;;9.85;100.00;98733.06;4965179;28;20254;-75
2023/03/09 08:07:37;;;;;;;7.88;2.28;;;9.80;99.90;;;9.77;100.00;98740.22;4968831;28;20308;-75
2023/03/09 08:10:06;;;;;;;7.88;2.08;;;9.80;99.90;;;9.86;100.00;98726.91;4962435;28;20249;-75
2023/03/09 08:12:33;;;;;;;7.45;1.95;;;9.80;99.90;;;9.78;100.00;98731.41;4961574;28;20305;-75
2023/03/09 08:15:00;;;;;;;18.35;4.20;;;9.80;99.90;;;9.78;100.00;98734.06;4965468;28;20265;-75
2023/03/09 08:17:28;;;;;;;12.00;2.72;;;9.80;99.90;;;9.94;100.00;98743.50;4969400;28;20275;-74
2023/03/09 08:19:56;;;;;;;7.55;2.00;;;9.90;99.90;;;10.09;100.00;98745.00;4955859;28;20268;-75
2023/03/09 08:22:23;;;;;;;11.65;2.50;;;10.00;99.90;;;10.07;100.00;98741.53;4964413;28;20256;-77
2023/03/09 08:24:50;;;;;;;14.55;3.33;;;10.00;99.90;;;10.12;100.00;98745.84;4963601;28;20224;-75
2023/03/09 08:27:17;;;;;;;18.65;4.10;;;10.00;99.90;;;10.17;100.00;98754.56;4969149;28;20232;-76
2023/03/09 08:29:44;;;;;;;13.00;2.85;;;10.10;99.90;;;10.13;100.00;98757.28;4969151;28;20249;-75
2023/03/09 08:32:12;;;;;;;14.07;3.35;;;10.10;99.90;;;10.09;100.00;98761.72;4964223;28;20281;-75
2023/03/09 08:37:14;;;;;;;16.73;4.07;;;10.10;99.90;;;10.10;100.00;98765.25;4981674;28;20219;-75
2023/03/09 08:39:41;;;;;;;15.23;3.40;;;10.00;99.90;;;10.08;100.00;98778.47;4983582;28;20228;-74
2023/03/09 08:42:08;;;;;;;23.50;5.05;;;10.00;99.90;;;10.14;100.00;98770.44;4984758;28;20240;-74
2023/03/09 08:44:35;;;;;;;16.40;3.58;;;10.10;99.90;;;10.14;100.00;98780.16;4985195;28;20255;-74
2023/03/09 08:47:03;;;;;;;17.38;3.97;;;10.10;99.90;;;10.13;100.00;98789.84;4997171;28;20811;-75
2023/03/09 08:49:30;;;;;;;16.25;3.85;;;10.10;99.90;;;10.15;100.00;98793.31;4981948;28;20252;-76
2023/03/09 08:51:57;;;;;;;18.95;4.25;;;10.10;99.90;;;10.17;100.00;98790.66;4977657;28;20239;-76
2023/03/09 08:54:24;;;;;;;11.30;2.78;;;10.10;99.90;;;10.17;100.00;98795.94;4983123;28;20332;-74
2023/03/09 08:56:51;;;;;;;20.90;4.80;;;10.10;99.90;;;10.23;100.00;98802.03;4982065;28;20233;-75
2023/03/09 08:59:18;;;;;;;11.80;2.95;;;10.20;99.90;;;10.25;100.00;98808.16;4974947;28;20299;-75
2023/03/09 09:01:45;;;;;;;11.85;2.92;;;10.20;99.90;;;10.43;100.00;98819.38;4975563;28;20259;-75
2023/03/09 09:04:12;;;;;;;11.00;2.83;;;10.30;99.90;;;10.52;100.00;98817.47;4978466;28;20246;-75
2023/03/09 09:06:39;;;;;;;14.57;3.58;;;10.40;99.90;;;10.58;100.00;98804.13;4985363;28;20251;-76
2023/03/09 09:09:08;;;;;;;25.65;5.78;;;10.50;99.90;;;10.60;100.00;98803.25;4983462;28;20302;-75
2023/03/09 09:11:35;;;;;;;15.88;3.70;;;10.50;99.90;;;10.54;100.00;98802.44;4980093;28;20243;-75
2023/03/09 09:14:02;;;;;;;14.45;3.45;;;10.50;99.90;;;10.62;100.00;98809.38;4981164;28;20232;-75
2023/03/09 09:16:29;;;;;;;12.88;3.03;;;10.60;99.90;;;10.56;100.00;98805.06;4985038;28;20252;-76
2023/03/09 09:18:56;;;;;;;14.32;3.30;;;10.50;99.90;;;10.63;100.00;98804.06;4987616;28;20245;-74
2023/03/09 09:21:23;;;;;;;12.05;3.00;;;10.60;99.90;;;10.68;100.00;98799.56;4987475;28;20282;-76
2023/03/09 09:23:50;;;;;;;16.42;3.80;;;10.60;99.90;;;10.65;100.00;98802.25;4985570;28;20252;-75
2023/03/09 09:26:17;;;;;;;22.50;5.22;;;10.60;99.90;;;10.71;100.00;98803.94;4981894;28;20295;-75
2023/03/09 09:28:45;;;;;;;10.73;2.53;;;10.70;99.90;;;10.70;100.00;98805.69;4988604;28;20232;-74
2023/03/09 09:31:18;;;;;;;21.80;5.10;;;10.60;99.90;;;10.85;100.00;98805.41;4985748;28;20254;-76
2023/03/09 09:33:45;;;;;;;12.13;2.88;;;10.70;99.90;;;10.87;100.00;98805.41;4985849;28;20685;-75
2023/03/09 09:36:16;;;;;;;19.00;4.25;;;10.80;99.90;;;10.86;100.00;98822.16;4988410;28;20603;-75
2023/03/09 09:38:44;;;;;;;14.32;3.30;;;10.80;99.90;;;10.92;100.00;98815.88;4991244;28;20225;-76
2023/03/09 09:41:40;;;;;;;10.48;2.50;;;10.90;99.90;;;10.93;100.00;98825.56;4990490;28;20295;-76
2023/03/09 09:44:15;;;;;;;17.13;3.92;;;10.90;99.90;;;10.83;100.00;98820.44;5005258;28;20232;-76
2023/03/09 09:46:45;;;;;;;12.65;2.80;;;10.80;99.90;;;10.94;100.00;98833.47;4991366;28;20302;-76
2023/03/09 09:49:22;;;;;;;14.00;3.22;;;10.80;99.90;;;10.98;99.76;98837.81;4987563;28;20236;-75
2023/03/09 09:52:25;;;;;;;11.40;2.50;;;10.90;99.90;;;10.94;100.00;98830.81;4989020;28;20228;-75
2023/03/09 09:55:30;;;;;;;22.23;4.65;;;10.90;99.90;;;11.06;99.58;98838.53;4982434;28;20260;-75
2023/03/09 09:58:30;;;;;;;12.75;2.83;;;11.00;99.90;;;11.12;98.99;98834.91;4986155;28;20318;-74
2023/03/09 10:01:04;;;;;;;11.10;2.58;;;11.00;99.90;;;11.07;99.26;98831.47;4991518;28;20299;-76
2023/03/09 10:03:41;;;;;;;18.75;3.95;;;11.00;99.90;;;11.06;99.41;98848.25;4988704;28;20231;-75
2023/03/09 10:06:22;;;;;;;15.90;3.65;;;10.90;99.90;;;11.06;98.93;98835.91;4986390;28;20247;-76
2023/03/09 10:09:01;;;;;;;10.60;2.35;;;11.00;99.90;;;11.01;100.00;98837.75;4989940;28;20258;-76
2023/03/09 10:11:28;;;;;;;10.93;2.53;;;11.00;99.90;;;11.06;99.75;98843.84;4991016;28;20305;-76
2023/03/09 10:14:30;;;;;;;10.13;2.40;;;11.00;99.90;;;11.06;100.00;98851.75;4990197;28;20709;-75
2023/03/09 10:17:13;;;;;;;19.20;4.10;;;11.00;99.90;;;11.08;100.00;98862.31;4987878;28;20220;-76
2023/03/09 10:19:42;;;;;;;11.98;2.75;;;11.00;99.90;;;11.13;100.00;98856.03;4989440;28;20236;-75
2023/03/09 10:22:12;;;;;;;10.60;2.63;;;11.00;99.90;;;11.15;100.00;98856.88;4985785;28;20235;-75
2023/03/09 10:24:43;;;;;;;12.50;2.85;;;11.00;99.90;;;11.20;100.00;98862.97;4982858;28;20240;-76
2023/03/09 10:27:57;;;;;;;11.63;2.85;;;11.10;99.90;;;11.23;100.00;98869.97;4991332;28;20233;-76
2023/03/09 10:30:38;;;;;;;11.63;2.72;;;11.20;99.90;;;11.29;100.00;98877.78;4990932;28;20243;-77
2023/03/09 10:33:08;;;;;;;12.82;3.08;;;11.20;99.90;;;11.33;100.00;98875.97;5001895;28;20270;-76